KRDU

Raleigh-Durham International Airport

Morrisville, North Carolina, USA
METAR KRDU 201051Z 24012KT 10SM BKN020 BKN250 13/12 A2942 RMK AO2 SLP962 T01330117
Observed Flight Rules
Jan-20 @ 10:51 UTC (26 minutes ago) Marginal Visual Flight Rules
Wind Visibility Clouds
240° at 12 knots 10 miles
  • Broken at 2,000' AGL
  • Broken at 25,000' AGL
Temperatures Readings
Current 13°C / 55°F
Dewpoint 12°C / 54°F
Humidity 94%
Altimeter 29.42" Hg
Pressure 996.2 hPa
Elevation 130
METAR KRDU 201051Z 24012KT 10SM BKN020 BKN250 13/12 A2942 RMK AO2 SLP962 T01330117
Observed Flight Rules
Jan-20 @ 10:51 UTC
(26 minutes ago)
MVFR
Wind Visibility
240° at 12 knots 10 miles
Clouds
  • Broken at 2,000' AGL
  • Broken at 25,000' AGL
Temperature Dewpoint
13°C / 55°F 12°C / 54°F
Humidity Altimeter Pressure
94% 29.42" Hg 996.2 hPa